Time;durP1;ratioP1;P1;durP2;ratioP2;P2;SDS_P1;SDS_P2;PMS_P1;PMS_P2;Temp;Humidity;BMP_temperature;BMP_pressure;BME280_temperature;BME280_humidity;BME280_pressure;Samples;Min_cycle;Max_cycle;Signal;HPM_P1;HPM_P2
2022/06/15 00:01:53;;;;;;;1.10;1.00;;;21.70;53.60;;;;;;5059972;28;20734;-58
2022/06/15 00:04:19;;;;;;;2.42;1.13;;;21.70;53.60;;;;;;5057193;28;20041;-58
2022/06/15 00:06:45;;;;;;;1.15;1.05;;;21.70;53.60;;;;;;5054832;28;20091;-59
2022/06/15 00:09:10;;;;;;;1.95;1.00;;;21.70;53.60;;;;;;5058155;28;20116;-58
2022/06/15 00:11:40;;;;;;;1.55;1.45;;;21.70;53.60;;;;;;5055042;28;20197;-59
2022/06/15 00:14:14;;;;;;;2.00;1.00;;;21.70;53.50;;;;;;5055744;28;20127;-59
2022/06/15 00:16:39;;;;;;;1.50;1.10;;;21.70;53.60;;;;;;5057191;28;20174;-59
2022/06/15 00:19:05;;;;;;;1.80;1.23;;;21.60;53.60;;;;;;5056681;28;20029;-59
2022/06/15 00:21:31;;;;;;;1.48;0.90;;;21.70;53.60;;;;;;5055828;28;20455;-59
2022/06/15 00:23:57;;;;;;;1.70;1.30;;;21.70;53.50;;;;;;5055856;28;20057;-59
2022/06/15 00:26:24;;;;;;;2.95;1.40;;;21.70;53.50;;;;;;5056417;28;20509;-58
2022/06/15 00:28:51;;;;;;;1.67;1.20;;;21.70;53.60;;;;;;5057219;28;20106;-58
2022/06/15 00:31:18;;;;;;;1.25;0.98;;;21.60;53.50;;;;;;5056653;28;20093;-59
2022/06/15 00:33:44;;;;;;;1.75;0.90;;;21.60;53.50;;;;;;5055661;28;20077;-58
2022/06/15 00:36:15;;;;;;;1.38;0.88;;;21.70;53.60;;;;;;5056138;28;20485;-58
2022/06/15 00:38:49;;;;;;;1.35;1.25;;;21.70;53.60;;;;;;5057185;28;20052;-58
2022/06/15 00:41:18;;;;;;;1.10;0.93;;;21.70;53.50;;;;;;5056366;28;20416;-58
2022/06/15 00:43:49;;;;;;;2.08;1.50;;;21.60;53.60;;;;;;5053790;28;20044;-57
2022/06/15 00:46:23;;;;;;;2.25;1.05;;;21.60;53.60;;;;;;5055971;28;20044;-58
2022/06/15 00:48:56;;;;;;;1.45;1.08;;;21.70;53.70;;;;;;5054816;28;20401;-59
2022/06/15 00:51:24;;;;;;;1.23;1.00;;;21.70;53.80;;;;;;5052772;28;20051;-62
2022/06/15 00:53:50;;;;;;;1.40;1.00;;;21.70;53.90;;;;;;5055365;28;20068;-60
2022/06/15 00:56:17;;;;;;;1.40;1.00;;;21.70;53.90;;;;;;5057015;28;20094;-59
2022/06/15 00:58:48;;;;;;;1.33;1.00;;;21.70;53.90;;;;;;5058218;28;20506;-59
2022/06/15 01:01:13;;;;;;;1.67;1.23;;;21.70;53.90;;;;;;5056972;28;20052;-59
2022/06/15 01:03:39;;;;;;;1.30;1.00;;;21.60;53.80;;;;;;5053572;28;20066;-58
2022/06/15 01:06:23;;;;;;;2.22;1.25;;;21.70;53.90;;;;;;5054916;28;20037;-59
2022/06/15 01:08:59;;;;;;;1.27;1.17;;;21.70;53.80;;;;;;5055325;28;20396;-60
2022/06/15 01:11:39;;;;;;;1.52;1.02;;;21.70;53.90;;;;;;5054882;28;20036;-59
2022/06/15 01:14:37;;;;;;;2.28;1.23;;;21.70;53.90;;;;;;5057723;28;20527;-59
2022/06/15 01:17:17;;;;;;;1.02;0.90;;;21.70;54.00;;;;;;5053657;28;20161;-59
2022/06/15 01:19:43;;;;;;;0.95;0.95;;;21.60;53.90;;;;;;5053884;28;20120;-58
2022/06/15 01:22:29;;;;;;;1.00;0.80;;;21.60;53.90;;;;;;5051825;28;20537;-59
2022/06/15 01:25:23;;;;;;;1.45;1.10;;;21.60;54.00;;;;;;5055512;28;20057;-57
2022/06/15 01:28:21;;;;;;;0.90;0.80;;;21.60;54.00;;;;;;5055555;28;20154;-58
2022/06/15 01:31:02;;;;;;;1.67;1.08;;;21.60;54.00;;;;;;5055305;28;20157;-60
2022/06/15 01:34:05;;;;;;;1.45;1.00;;;21.60;54.10;;;;;;5055597;28;20032;-59
2022/06/15 01:36:38;;;;;;;1.10;1.00;;;21.60;54.00;;;;;;5058885;28;20047;-58
2022/06/15 01:39:18;;;;;;;1.55;1.08;;;21.60;54.10;;;;;;5054258;28;20036;-58
2022/06/15 01:41:51;;;;;;;1.13;1.00;;;21.60;54.10;;;;;;5070720;28;20102;-60
2022/06/15 01:44:26;;;;;;;2.42;1.33;;;21.60;54.10;;;;;;5055032;28;20429;-59
2022/06/15 01:46:53;;;;;;;1.27;1.00;;;21.60;54.20;;;;;;5054450;28;20127;-59
2022/06/15 01:49:30;;;;;;;1.65;1.10;;;21.60;54.10;;;;;;5055286;28;20045;-58
2022/06/15 01:51:59;;;;;;;1.30;1.02;;;21.60;54.10;;;;;;5054661;28;20044;-58
2022/06/15 01:54:54;;;;;;;1.27;1.17;;;21.60;54.20;;;;;;5054556;28;20786;-60
2022/06/15 01:57:22;;;;;;;1.45;1.20;;;21.60;54.10;;;;;;5054230;28;20044;-59
2022/06/15 02:00:23;;;;;;;1.08;0.93;;;21.60;54.10;;;;;;5054501;28;20044;-58
2022/06/15 02:02:59;;;;;;;;;;;21.60;54.10;;;;;;5046536;28;20060;-59
2022/06/15 02:05:45;;;;;;;1.08;0.90;;;21.60;54.00;;;;;;5053365;28;20285;-59
2022/06/15 02:08:18;;;;;;;0.95;0.90;;;21.60;54.20;;;;;;5054279;28;20071;-59
2022/06/15 02:11:03;;;;;;;2.03;0.98;;;21.60;54.10;;;;;;5053412;28;20059;-59
2022/06/15 02:13:46;;;;;;;1.23;1.10;;;21.60;54.00;;;;;;5055768;28;20069;-58
2022/06/15 02:16:21;;;;;;;1.63;1.27;;;21.50;54.00;;;;;;5054210;28;20116;-59
2022/06/15 02:18:48;;;;;;;1.50;1.27;;;21.60;54.00;;;;;;5054597;28;20045;-59
2022/06/15 02:21:17;;;;;;;1.08;1.00;;;21.60;54.00;;;;;;5054393;28;20491;-59
2022/06/15 02:23:46;;;;;;;1.40;1.20;;;21.60;54.00;;;;;;5053774;28;20537;-59
2022/06/15 02:26:14;;;;;;;1.83;1.35;;;21.60;54.00;;;;;;5053313;28;20044;-58
2022/06/15 02:28:46;;;;;;;1.80;1.30;;;21.60;54.00;;;;;;5056685;28;20538;-58
2022/06/15 02:31:11;;;;;;;1.25;1.10;;;21.60;53.90;;;;;;5055647;28;20041;-59
2022/06/15 02:33:44;;;;;;;1.27;1.10;;;21.60;54.00;;;;;;5051026;28;20040;-59
2022/06/15 02:36:10;;;;;;;1.25;1.13;;;21.60;53.90;;;;;;5054080;28;20334;-58
2022/06/15 02:38:36;;;;;;;1.30;1.20;;;21.60;53.90;;;;;;5053790;28;20095;-58
2022/06/15 02:41:02;;;;;;;2.08;1.23;;;21.60;53.80;;;;;;5054046;28;20045;-59
2022/06/15 02:43:31;;;;;;;1.30;1.20;;;21.60;53.80;;;;;;5052120;28;20492;-56
2022/06/15 02:45:59;;;;;;;1.83;1.30;;;21.50;53.60;;;;;;5051893;28;20091;-59
2022/06/15 02:48:25;;;;;;;2.55;1.20;;;21.60;53.70;;;;;;5052918;28;20412;-58
2022/06/15 02:50:54;;;;;;;2.75;1.33;;;21.60;53.70;;;;;;5071843;28;20178;-59
2022/06/15 02:53:23;;;;;;;2.28;1.20;;;21.60;53.70;;;;;;5055130;28;20096;-60
2022/06/15 02:55:51;;;;;;;1.35;0.95;;;21.60;53.70;;;;;;5052597;28;20037;-59
2022/06/15 02:58:27;;;;;;;1.90;1.00;;;21.60;53.60;;;;;;5053436;28;20041;-60
2022/06/15 03:00:56;;;;;;;2.42;1.13;;;21.60;53.60;;;;;;5054631;28;20123;-59
2022/06/15 03:03:23;;;;;;;1.60;1.00;;;21.50;53.60;;;;;;5053264;28;20057;-62
2022/06/15 03:05:52;;;;;;;1.73;1.17;;;21.50;53.50;;;;;;5056380;28;20041;-60
2022/06/15 03:08:19;;;;;;;1.80;1.05;;;21.60;53.60;;;;;;5056538;28;20128;-59
2022/06/15 03:10:45;;;;;;;1.95;1.20;;;21.50;53.50;;;;;;5054851;28;20547;-58
2022/06/15 03:13:11;;;;;;;1.42;1.20;;;21.60;53.50;;;;;;5058466;28;20036;-59
2022/06/15 03:15:37;;;;;;;1.20;0.80;;;21.50;53.50;;;;;;5057371;28;20068;-59
2022/06/15 03:18:03;;;;;;;1.10;1.00;;;21.60;53.50;;;;;;5056360;28;20159;-58
2022/06/15 03:20:29;;;;;;;1.02;0.98;;;21.50;53.50;;;;;;5058633;28;20041;-59
2022/06/15 03:22:54;;;;;;;1.58;1.30;;;21.50;53.40;;;;;;5057871;28;20048;-59
2022/06/15 03:25:20;;;;;;;2.03;1.10;;;21.50;53.40;;;;;;5057388;28;20590;-57
2022/06/15 03:27:46;;;;;;;1.25;1.00;;;21.50;53.40;;;;;;5056760;28;20582;-61
2022/06/15 03:30:12;;;;;;;1.38;1.15;;;21.50;53.40;;;;;;5057455;28;20163;-58
2022/06/15 03:32:38;;;;;;;1.80;1.00;;;21.50;53.30;;;;;;5056241;28;20039;-59
2022/06/15 03:35:04;;;;;;;2.10;1.27;;;21.50;53.30;;;;;;5058231;28;20383;-58
2022/06/15 03:37:30;;;;;;;1.58;1.10;;;21.50;53.30;;;;;;5055684;28;20037;-61
2022/06/15 03:39:56;;;;;;;1.70;1.02;;;21.50;53.30;;;;;;5057836;28;20033;-60
2022/06/15 03:42:24;;;;;;;1.27;1.17;;;21.50;53.30;;;;;;5057932;28;20040;-59
2022/06/15 03:44:50;;;;;;;1.50;1.10;;;21.50;53.20;;;;;;5058827;28;20810;-58
2022/06/15 03:47:17;;;;;;;2.42;1.30;;;21.50;53.20;;;;;;5058931;28;20090;-59
2022/06/15 03:49:50;;;;;;;0.90;0.90;;;21.50;53.20;;;;;;5055869;28;20041;-60
2022/06/15 03:52:17;;;;;;;1.38;1.10;;;21.50;53.20;;;;;;5057278;28;20116;-59
2022/06/15 03:54:42;;;;;;;1.77;1.10;;;21.50;53.20;;;;;;5056316;28;20128;-59
2022/06/15 03:57:11;;;;;;;1.55;0.90;;;21.50;53.20;;;;;;5054748;28;20950;-58
2022/06/15 03:59:38;;;;;;;1.40;1.10;;;21.50;53.20;;;;;;5056175;28;20136;-58
2022/06/15 04:02:04;;;;;;;2.20;1.33;;;21.50;53.20;;;;;;5057047;28;20041;-61
2022/06/15 04:04:29;;;;;;;2.35;1.42;;;21.50;53.20;;;;;;5055584;28;20036;-58
2022/06/15 04:06:55;;;;;;;1.55;1.08;;;21.50;53.20;;;;;;5055860;28;20045;-60
2022/06/15 04:09:21;;;;;;;1.77;1.10;;;21.50;53.10;;;;;;5055711;28;20116;-58
2022/06/15 04:12:08;;;;;;;2.00;1.15;;;21.50;53.20;;;;;;5057004;28;20063;-59
2022/06/15 04:14:35;;;;;;;1.10;1.00;;;21.50;53.10;;;;;;5055732;28;20063;-57
2022/06/15 04:17:01;;;;;;;1.05;0.95;;;21.50;53.10;;;;;;5056014;28;20052;-58
2022/06/15 04:19:30;;;;;;;2.20;1.10;;;21.50;53.10;;;;;;5057249;28;20043;-58
2022/06/15 04:21:56;;;;;;;1.35;1.02;;;21.50;53.10;;;;;;5055916;28;20046;-58
2022/06/15 04:24:24;;;;;;;1.25;0.98;;;21.50;53.10;;;;;;5058545;28;20044;-57
2022/06/15 04:26:50;;;;;;;1.17;1.08;;;21.50;53.10;;;;;;5054714;28;20132;-59
2022/06/15 04:29:18;;;;;;;2.05;1.00;;;21.40;53.00;;;;;;5059728;28;20037;-59
2022/06/15 04:31:43;;;;;;;1.27;1.17;;;21.50;53.10;;;;;;5057432;28;20041;-59
2022/06/15 04:34:10;;;;;;;1.02;1.00;;;21.50;53.10;;;;;;5052864;28;20765;-58
2022/06/15 04:36:38;;;;;;;1.30;1.05;;;21.50;53.10;;;;;;5056292;28;20442;-58
2022/06/15 04:39:05;;;;;;;1.60;1.38;;;21.50;53.00;;;;;;5052432;28;20110;-57
2022/06/15 04:41:30;;;;;;;1.42;1.02;;;21.40;53.00;;;;;;5055525;28;20550;-60
2022/06/15 04:43:56;;;;;;;1.55;1.20;;;21.40;53.00;;;;;;5053592;28;20040;-60
2022/06/15 04:46:22;;;;;;;1.20;1.10;;;21.40;53.00;;;;;;5057104;28;20400;-59
2022/06/15 04:48:48;;;;;;;2.70;1.30;;;21.50;53.00;;;;;;5058771;28;20041;-59
2022/06/15 04:51:23;;;;;;;1.50;1.13;;;21.40;53.00;;;;;;5054869;28;20079;-58
2022/06/15 04:53:50;;;;;;;1.60;1.02;;;21.50;53.00;;;;;;5054440;28;20041;-58
2022/06/15 04:56:16;;;;;;;1.50;0.93;;;21.50;53.10;;;;;;5056743;28;20117;-59
2022/06/15 04:58:43;;;;;;;1.58;1.30;;;21.50;53.10;;;;;;5055858;28;20051;-57
2022/06/15 05:01:10;;;;;;;1.30;1.00;;;21.50;53.00;;;;;;5054503;28;20064;-59
2022/06/15 05:03:37;;;;;;;1.20;0.90;;;21.40;53.00;;;;;;5054992;28;20037;-61
2022/06/15 05:06:10;;;;;;;1.33;1.10;;;21.50;53.10;;;;;;5056706;28;20041;-59
2022/06/15 05:08:35;;;;;;;1.85;1.00;;;21.50;53.10;;;;;;5056275;28;20072;-59
2022/06/15 05:11:01;;;;;;;0.90;0.77;;;21.50;53.10;;;;;;5056517;28;20079;-60
2022/06/15 05:13:28;;;;;;;1.58;1.20;;;21.40;53.00;;;;;;5056188;28;20034;-58
2022/06/15 05:15:55;;;;;;;1.60;1.25;;;21.40;53.00;;;;;;5056270;28;20051;-58
2022/06/15 05:18:21;;;;;;;1.33;1.17;;;21.50;53.10;;;;;;5057311;28;20333;-59
2022/06/15 05:20:46;;;;;;;1.10;1.00;;;21.40;53.10;;;;;;5054748;28;20028;-59
2022/06/15 05:23:16;;;;;;;1.17;1.02;;;21.40;53.10;;;;;;5055792;28;21070;-58
2022/06/15 05:25:43;;;;;;;1.50;1.10;;;21.50;53.20;;;;;;5055416;28;20057;-59
2022/06/15 05:28:12;;;;;;;1.95;1.38;;;21.40;53.10;;;;;;5055847;28;20037;-57
2022/06/15 05:30:38;;;;;;;1.42;0.90;;;21.40;53.10;;;;;;5056430;28;20072;-61
2022/06/15 05:33:04;;;;;;;2.08;1.00;;;21.50;53.10;;;;;;5057189;28;20036;-59
2022/06/15 05:35:30;;;;;;;1.30;1.20;;;21.40;53.10;;;;;;5053372;28;20047;-58
2022/06/15 05:37:56;;;;;;;3.45;1.10;;;21.40;53.10;;;;;;5061370;28;20051;-58
2022/06/15 05:40:22;;;;;;;5.22;1.20;;;21.40;53.10;;;;;;5050670;28;20052;-59
2022/06/15 05:42:47;;;;;;;3.30;1.08;;;21.40;53.40;;;;;;5055669;28;20037;-58
2022/06/15 05:45:13;;;;;;;3.13;1.20;;;21.40;53.40;;;;;;5054374;28;20051;-58
2022/06/15 05:47:39;;;;;;;2.67;1.35;;;21.40;53.50;;;;;;5057454;28;20523;-59
2022/06/15 05:50:06;;;;;;;4.57;1.33;;;21.40;53.60;;;;;;5055087;28;20049;-58
2022/06/15 05:52:32;;;;;;;8.23;1.80;;;21.50;53.70;;;;;;5056014;28;20044;-59
2022/06/15 05:55:00;;;;;;;4.25;1.63;;;21.40;53.70;;;;;;5057717;28;20043;-57
2022/06/15 05:57:26;;;;;;;4.43;1.80;;;21.50;53.60;;;;;;5055839;28;20044;-60
2022/06/15 05:59:55;;;;;;;3.55;1.40;;;21.40;53.50;;;;;;5055190;28;20060;-59
2022/06/15 06:02:22;;;;;;;3.20;1.50;;;21.40;53.70;;;;;;5054027;28;20038;-60
2022/06/15 06:04:48;;;;;;;2.67;1.60;;;21.40;53.60;;;;;;5055206;28;20033;-61
2022/06/15 06:07:14;;;;;;;5.38;2.00;;;21.50;53.80;;;;;;5052927;28;20039;-59
2022/06/15 06:09:40;;;;;;;3.90;1.70;;;21.40;53.60;;;;;;5054125;28;20045;-59
2022/06/15 06:12:07;;;;;;;5.13;2.35;;;21.40;53.60;;;;;;5054922;28;20052;-59
2022/06/15 06:14:33;;;;;;;4.78;2.58;;;21.40;53.50;;;;;;5053802;28;20044;-61
2022/06/15 06:16:59;;;;;;;3.80;2.45;;;21.40;53.30;;;;;;5044838;28;20043;-62
2022/06/15 06:19:24;;;;;;;3.53;1.92;;;21.40;53.40;;;;;;5050967;28;20083;-60
2022/06/15 06:21:50;;;;;;;5.70;2.40;;;21.40;53.50;;;;;;5053571;28;20898;-59
2022/06/15 06:24:16;;;;;;;4.07;2.25;;;21.40;53.50;;;;;;5053757;28;20052;-61
2022/06/15 06:26:42;;;;;;;5.13;2.42;;;21.40;53.50;;;;;;5052043;28;20404;-60
2022/06/15 06:29:14;;;;;;;3.28;1.77;;;21.40;53.50;;;;;;5053644;28;20036;-58
2022/06/15 06:31:40;;;;;;;3.63;2.20;;;21.40;53.50;;;;;;5052891;28;20385;-59
2022/06/15 06:34:05;;;;;;;4.57;1.88;;;21.40;53.60;;;;;;5053623;28;20119;-59
2022/06/15 06:36:35;;;;;;;4.88;2.40;;;21.40;53.60;;;;;;5055433;28;20745;-62
2022/06/15 06:39:05;;;;;;;4.53;2.40;;;21.40;53.50;;;;;;5050823;28;20051;-60
2022/06/15 06:41:31;;;;;;;5.97;1.88;;;21.40;53.40;;;;;;5054122;28;20047;-59
2022/06/15 06:43:59;;;;;;;2.60;2.10;;;21.40;53.60;;;;;;5050564;28;20048;-60
2022/06/15 06:46:25;;;;;;;5.25;1.98;;;21.40;53.60;;;;;;5049819;28;20049;-59
2022/06/15 06:48:51;;;;;;;5.95;1.95;;;21.40;53.70;;;;;;5054593;28;22006;-59
2022/06/15 06:51:17;;;;;;;4.35;1.92;;;21.40;53.70;;;;;;5052719;28;20048;-57
2022/06/15 06:53:43;;;;;;;3.10;1.65;;;21.40;53.70;;;;;;5053233;28;20051;-57
2022/06/15 06:56:10;;;;;;;3.15;1.77;;;21.40;53.70;;;;;;5053421;28;20549;-57
2022/06/15 06:58:36;;;;;;;4.40;2.15;;;21.40;53.70;;;;;;5051833;28;20132;-59
2022/06/15 07:01:02;;;;;;;5.13;2.15;;;21.40;53.70;;;;;;5053488;28;20040;-59
2022/06/15 07:03:28;;;;;;;2.53;1.58;;;21.40;53.80;;;;;;5054001;28;20080;-59
2022/06/15 07:06:03;;;;;;;4.38;1.70;;;21.40;53.80;;;;;;5052507;28;20068;-60
2022/06/15 07:08:29;;;;;;;5.55;1.83;;;21.40;54.00;;;;;;5050780;28;20551;-64
2022/06/15 07:10:55;;;;;;;2.97;2.00;;;21.40;54.20;;;;;;5052777;28;20041;-61
2022/06/15 07:13:22;;;;;;;4.15;1.95;;;21.40;54.20;;;;;;5050249;28;20037;-61
2022/06/15 07:15:47;;;;;;;5.20;2.15;;;21.40;54.30;;;;;;5054080;28;20419;-64
2022/06/15 07:18:13;;;;;;;4.53;1.90;;;21.40;54.20;;;;;;5054937;28;20440;-59
2022/06/15 07:20:39;;;;;;;4.90;2.20;;;21.40;54.20;;;;;;5055887;28;20037;-61
2022/06/15 07:23:05;;;;;;;3.38;1.90;;;21.40;54.20;;;;;;5056402;28;20055;-60
2022/06/15 07:25:31;;;;;;;4.90;2.50;;;21.40;54.30;;;;;;5054843;28;20041;-61
2022/06/15 07:27:57;;;;;;;5.28;2.47;;;21.40;54.20;;;;;;5055879;28;20163;-61
2022/06/15 07:30:25;;;;;;;3.10;2.30;;;21.40;54.20;;;;;;5055695;28;20036;-62
2022/06/15 07:32:51;;;;;;;4.82;2.30;;;21.30;54.20;;;;;;5055225;28;20044;-59
2022/06/15 07:35:30;;;;;;;2.88;1.80;;;21.30;54.20;;;;;;5052692;28;20445;-61
2022/06/15 07:37:56;;;;;;;3.78;2.10;;;21.40;54.30;;;;;;5054045;28;20522;-61
2022/06/15 07:40:23;;;;;;;6.60;2.42;;;21.40;54.30;;;;;;5053757;28;20048;-60
2022/06/15 07:42:49;;;;;;;5.32;2.33;;;21.40;54.30;;;;;;5053130;28;20037;-63
2022/06/15 07:45:17;;;;;;;5.65;2.42;;;21.40;54.30;;;;;;5052407;28;20037;-59
2022/06/15 07:50:27;;;;;;;3.35;1.80;;;21.40;54.40;;;;;;5055930;28;20385;-59
2022/06/15 07:52:54;;;;;;;4.60;2.13;;;21.40;54.30;;;;;;5057569;28;20037;-60
2022/06/15 07:55:25;;;;;;;5.70;1.90;;;21.40;54.40;;;;;;5058339;28;20062;-61
2022/06/15 07:57:51;;;;;;;4.85;2.38;;;21.40;54.30;;;;;;5056601;28;20048;-63
2022/06/15 08:00:18;;;;;;;3.15;1.95;;;21.40;54.40;;;;;;5058078;28;20037;-60
2022/06/15 08:02:43;;;;;;;3.58;1.85;;;21.40;54.40;;;;;;5056327;28;20040;-58
2022/06/15 08:05:09;;;;;;;4.75;2.00;;;21.40;54.50;;;;;;5057575;28;20039;-60
2022/06/15 08:07:36;;;;;;;3.58;1.80;;;21.40;55.10;;;;;;5057955;28;20657;-60
2022/06/15 08:10:01;;;;;;;2.47;1.67;;;21.40;54.40;;;;;;5054620;28;20036;-60
2022/06/15 08:12:28;;;;;;;5.43;1.90;;;21.40;54.40;;;;;;5054377;28;20048;-61
2022/06/15 08:14:56;;;;;;;4.13;1.90;;;21.40;54.50;;;;;;5058472;28;20066;-58
2022/06/15 08:17:26;;;;;;;2.97;1.60;;;21.40;54.60;;;;;;5058209;28;20056;-61
2022/06/15 08:19:59;;;;;;;3.17;2.00;;;21.40;54.60;;;;;;5057407;28;20574;-60
2022/06/15 08:22:25;;;;;;;2.83;1.52;;;21.40;54.50;;;;;;5049938;28;20049;-62
2022/06/15 08:24:51;;;;;;;5.97;1.92;;;21.40;54.40;;;;;;5055877;28;20572;-62
2022/06/15 08:27:19;;;;;;;3.33;1.75;;;21.40;54.50;;;;;;5056834;28;20178;-59
2022/06/15 08:29:47;;;;;;;3.53;1.52;;;21.40;54.40;;;;;;5055887;28;20186;-60
2022/06/15 08:32:14;;;;;;;4.30;1.50;;;21.40;54.40;;;;;;5059134;28;20801;-60
2022/06/15 08:34:40;;;;;;;2.45;1.40;;;21.40;54.30;;;;;;5057849;28;20028;-58
2022/06/15 08:37:10;;;;;;;3.58;1.58;;;21.40;54.30;;;;;;5057454;28;20040;-61
2022/06/15 08:39:36;;;;;;;2.97;1.50;;;21.40;54.20;;;;;;5056279;28;20036;-62
2022/06/15 08:42:36;;;;;;;2.40;1.40;;;21.40;54.20;;;;;;5056968;28;20040;-59
2022/06/15 08:45:38;;;;;;;2.95;1.60;;;21.40;54.10;;;;;;5043803;28;20448;-59
2022/06/15 08:48:52;;;;;;;2.45;1.20;;;21.40;54.10;;;;;;5059404;28;20051;-60
2022/06/15 08:51:31;;;;;;;4.45;1.38;;;21.40;54.00;;;;;;5044839;28;20118;-60
2022/06/15 08:54:25;;;;;;;2.65;1.10;;;21.40;53.90;;;;;;5054350;28;20029;-59
2022/06/15 08:57:23;;;;;;;2.42;1.45;;;21.40;53.80;;;;;;5050039;28;20049;-62
2022/06/15 09:00:02;;;;;;;1.95;1.23;;;21.40;53.70;;;;;;5057120;28;20037;-60
2022/06/15 09:02:49;;;;;;;1.10;1.00;;;21.40;53.70;;;;;;5058412;28;20032;-60
2022/06/15 09:05:39;;;;;;;5.28;1.45;;;21.40;53.60;;;;;;5054128;28;20075;-62
2022/06/15 09:08:08;;;;;;;3.70;1.50;;;21.40;53.20;;;;;;5056922;28;20033;-60
2022/06/15 09:10:46;;;;;;;2.83;1.30;;;21.40;53.10;;;;;;5054578;28;20474;-59
2022/06/15 09:13:29;;;;;;;3.17;1.40;;;21.40;52.90;;;;;;5057371;28;20044;-59
2022/06/15 09:16:24;;;;;;;1.88;1.00;;;21.40;52.80;;;;;;5057410;28;20123;-60
2022/06/15 09:19:03;;;;;;;3.65;1.30;;;21.40;52.50;;;;;;5058146;28;20066;-61
2022/06/15 09:21:35;;;;;;;2.35;1.20;;;21.40;52.50;;;;;;5058227;28;20048;-61
2022/06/15 09:24:16;;;;;;;1.25;1.00;;;21.50;52.40;;;;;;5057040;28;20051;-60
2022/06/15 09:26:49;;;;;;;2.55;1.35;;;21.40;52.20;;;;;;5053651;28;20963;-59
2022/06/15 09:29:27;;;;;;;2.13;1.30;;;21.40;52.20;;;;;;5055717;28;20040;-62
2022/06/15 09:32:10;;;;;;;1.65;1.00;;;21.40;52.10;;;;;;5055563;28;20082;-59
2022/06/15 09:34:42;;;;;;;2.00;1.10;;;21.50;52.00;;;;;;5055486;28;20068;-60
2022/06/15 09:37:14;;;;;;;4.80;1.50;;;21.40;52.10;;;;;;5055188;28;20044;-60
2022/06/15 09:39:40;;;;;;;1.30;1.20;;;21.50;52.00;;;;;;5055088;28;20131;-59
2022/06/15 09:42:15;;;;;;;2.58;1.20;;;21.40;51.90;;;;;;5054425;28;20036;-62
2022/06/15 09:45:00;;;;;;;1.40;0.93;;;21.40;51.70;;;;;;5055290;28;20098;-62
2022/06/15 09:47:37;;;;;;;2.90;1.15;;;21.50;51.80;;;;;;5056193;28;20456;-60
2022/06/15 09:50:18;;;;;;;2.83;1.42;;;21.40;51.80;;;;;;5054069;28;20454;-60
2022/06/15 09:53:16;;;;;;;2.42;1.30;;;21.50;51.80;;;;;;5055628;28;20048;-60
2022/06/15 09:55:45;;;;;;;1.80;1.20;;;21.40;51.70;;;;;;5054270;28;20056;-60
2022/06/15 09:58:15;;;;;;;2.40;0.90;;;21.40;51.70;;;;;;5056189;28;20147;-60
2022/06/15 10:00:42;;;;;;;3.70;1.40;;;21.50;51.80;;;;;;5055688;28;20507;-60
2022/06/15 10:03:20;;;;;;;1.48;1.20;;;21.40;51.70;;;;;;5053513;28;20507;-61
2022/06/15 10:05:48;;;;;;;2.50;1.30;;;21.40;51.60;;;;;;5056593;28;20040;-60
2022/06/15 10:08:15;;;;;;;2.33;1.10;;;21.50;51.70;;;;;;5056360;28;20045;-59
2022/06/15 10:10:58;;;;;;;2.65;1.20;;;21.50;51.70;;;;;;5054999;28;20090;-61
2022/06/15 10:13:34;;;;;;;2.35;1.30;;;21.50;51.80;;;;;;5054598;28;20052;-62
2022/06/15 10:16:24;;;;;;;4.00;1.20;;;21.50;51.70;;;;;;5052837;28;20045;-61
2022/06/15 10:18:53;;;;;;;2.78;1.35;;;21.50;51.80;;;;;;5054290;28;20033;-63
2022/06/15 10:21:27;;;;;;;3.03;1.02;;;21.40;51.70;;;;;;5061567;28;20048;-59
2022/06/15 10:23:59;;;;;;;1.70;1.10;;;21.50;51.80;;;;;;5054527;28;21737;-60
2022/06/15 10:26:36;;;;;;;2.10;1.20;;;21.50;51.70;;;;;;5056011;28;20396;-60
2022/06/15 10:29:18;;;;;;;2.75;1.08;;;21.50;52.40;;;;;;5055637;28;20049;-60
2022/06/15 10:32:15;;;;;;;2.63;0.98;;;21.50;51.80;;;;;;5052049;28;20078;-60
2022/06/15 10:34:47;;;;;;;2.78;1.02;;;21.40;51.70;;;;;;5053738;28;20122;-63
2022/06/15 10:37:40;;;;;;;3.15;1.30;;;21.50;51.80;;;;;;5058006;28;20044;-60
2022/06/15 10:40:29;;;;;;;2.17;1.05;;;21.50;51.90;;;;;;5055191;28;20044;-60
2022/06/15 10:43:13;;;;;;;1.75;1.20;;;21.50;51.90;;;;;;5054567;28;20319;-61
2022/06/15 10:45:43;;;;;;;3.75;1.20;;;21.50;52.70;;;;;;5050428;28;20092;-59
2022/06/15 10:48:49;;;;;;;2.25;1.30;;;21.50;52.00;;;;;;5056472;28;20697;-60
2022/06/15 10:51:37;;;;;;;1.83;1.10;;;21.50;52.00;;;;;;5051986;28;20516;-60
2022/06/15 10:54:14;;;;;;;2.22;1.20;;;21.50;52.00;;;;;;5055635;28;20062;-59
2022/06/15 11:02:31;;;;;;;1.98;1.00;;;21.50;52.10;;;;;;5056166;28;20661;-61
2022/06/15 11:05:13;;;;;;;1.10;0.98;;;21.50;52.10;;;;;;5054501;28;20103;-60
2022/06/15 11:07:44;;;;;;;1.98;1.02;;;21.50;52.20;;;;;;5056879;28;20041;-60
2022/06/15 11:10:18;;;;;;;1.90;1.08;;;21.50;52.30;;;;;;5054725;28;20567;-60
2022/06/15 11:13:13;;;;;;;2.08;1.00;;;21.50;52.40;;;;;;5053503;28;20041;-60
2022/06/15 11:18:45;;;;;;;2.67;0.98;;;21.50;52.30;;;;;;5050963;28;20133;-60
2022/06/15 11:21:21;;;;;;;2.40;1.10;;;21.50;52.40;;;;;;5053407;28;20044;-59
2022/06/15 11:23:55;;;;;;;3.55;1.30;;;21.50;52.40;;;;;;5052897;28;20049;-60
2022/06/15 11:26:57;;;;;;;4.05;1.40;;;21.50;52.40;;;;;;5056171;28;21845;-60
2022/06/15 11:29:44;;;;;;;1.15;1.00;;;21.50;52.30;;;;;;5057398;28;20029;-59
2022/06/15 11:32:28;;;;;;;2.60;1.00;;;21.50;52.30;;;;;;5057991;28;20079;-59
2022/06/15 11:35:35;;;;;;;3.25;1.30;;;21.50;52.50;;;;;;5057561;28;20149;-60
2022/06/15 11:38:28;;;;;;;3.10;1.20;;;21.50;52.50;;;;;;5057871;28;20377;-59
2022/06/15 11:41:08;;;;;;;1.65;1.10;;;21.50;52.40;;;;;;5057200;28;20040;-59
2022/06/15 11:43:37;;;;;;;3.53;0.90;;;21.50;52.30;;;;;;5056016;28;20037;-61
2022/06/15 11:46:42;;;;;;;1.77;1.05;;;21.50;52.40;;;;;;5039016;28;20098;-60
2022/06/15 11:49:28;;;;;;;2.25;0.98;;;21.50;52.20;;;;;;5054949;28;20442;-60
2022/06/15 11:52:16;;;;;;;1.35;1.02;;;21.50;52.30;;;;;;5055557;28;20044;-59
2022/06/15 11:54:54;;;;;;;1.73;1.30;;;21.50;52.40;;;;;;5048575;28;20080;-59
2022/06/15 11:57:53;;;;;;;3.13;1.23;;;21.50;52.40;;;;;;5057830;28;20052;-60
2022/06/15 12:00:31;;;;;;;1.05;0.82;;;21.50;52.40;;;;;;5056667;28;20584;-59
2022/06/15 12:03:15;;;;;;;1.75;1.27;;;21.50;52.40;;;;;;5057222;28;20574;-59
2022/06/15 12:05:53;;;;;;;2.75;1.30;;;21.50;52.50;;;;;;5056979;28;20077;-62
2022/06/15 12:09:00;;;;;;;1.25;1.00;;;21.50;52.40;;;;;;5055058;28;20116;-61
2022/06/15 12:14:50;;;;;;;2.90;1.33;;;21.50;52.40;;;;;;5038262;28;20583;-63
2022/06/15 12:17:45;;;;;;;2.45;1.27;;;21.50;52.50;;;;;;5043713;28;20129;-61
2022/06/15 12:20:28;;;;;;;1.38;1.20;;;21.50;52.50;;;;;;5046647;28;20055;-60
2022/06/15 12:22:57;;;;;;;2.20;1.10;;;21.60;52.60;;;;;;5033535;28;20078;-63
2022/06/15 12:25:45;;;;;;;3.83;1.50;;;21.50;52.60;;;;;;5055882;28;20063;-59
2022/06/15 12:28:33;;;;;;;3.65;1.10;;;21.50;52.60;;;;;;5055127;28;20029;-59
2022/06/15 12:31:08;;;;;;;1.92;1.00;;;21.60;52.70;;;;;;5057300;28;20189;-60
2022/06/15 12:34:05;;;;;;;2.88;1.40;;;21.60;52.80;;;;;;5049326;28;20049;-62
2022/06/15 12:36:54;;;;;;;1.55;0.95;;;21.60;52.80;;;;;;5050990;28;20456;-61
2022/06/15 12:39:27;;;;;;;2.15;1.25;;;21.60;53.60;;;;;;5052860;28;20555;-60
2022/06/15 12:42:12;;;;;;;2.50;1.02;;;21.60;52.90;;;;;;5055038;28;20121;-61
2022/06/15 12:44:45;;;;;;;2.33;1.02;;;21.60;52.80;;;;;;5056249;28;20460;-60
2022/06/15 12:47:13;;;;;;;3.65;1.30;;;21.60;52.80;;;;;;5054997;28;20041;-60
2022/06/15 12:49:54;;;;;;;2.10;1.00;;;21.60;52.80;;;;;;5057438;28;20068;-60
2022/06/15 12:52:32;;;;;;;1.55;1.08;;;21.60;52.80;;;;;;5053451;28;20128;-58
2022/06/15 12:55:29;;;;;;;2.05;1.20;;;21.60;52.80;;;;;;5054615;28;20514;-60
2022/06/15 12:58:32;;;;;;;1.65;1.25;;;21.60;52.80;;;;;;5056659;28;20476;-60
2022/06/15 13:01:07;;;;;;;2.85;1.30;;;21.60;52.70;;;;;;5053529;28;20116;-60
2022/06/15 13:04:00;;;;;;;3.20;1.50;;;21.60;52.60;;;;;;5051432;28;20055;-61
2022/06/15 13:06:32;;;;;;;2.20;1.38;;;21.60;52.30;;;;;;5054584;28;20178;-61
2022/06/15 13:09:14;;;;;;;2.05;1.20;;;21.60;52.50;;;;;;5051729;28;20033;-59
2022/06/15 13:12:04;;;;;;;2.58;1.30;;;21.70;52.60;;;;;;5053910;28;20127;-60
2022/06/15 13:14:55;;;;;;;1.95;1.08;;;21.70;52.60;;;;;;5061244;28;20120;-60
2022/06/15 13:17:25;;;;;;;3.42;1.52;;;21.70;52.50;;;;;;5029889;28;21077;-61
2022/06/15 13:20:02;;;;;;;3.55;1.20;;;21.70;52.70;;;;;;5053316;28;20025;-63
2022/06/15 13:22:32;;;;;;;2.03;1.10;;;21.70;52.70;;;;;;5052316;28;20143;-60
2022/06/15 13:25:04;;;;;;;4.17;1.50;;;21.70;52.70;;;;;;5055972;28;20091;-60
2022/06/15 13:27:39;;;;;;;3.83;1.30;;;21.70;52.70;;;;;;5053694;28;20128;-59
2022/06/15 13:30:17;;;;;;;1.55;1.23;;;21.70;52.80;;;;;;5055542;28;20108;-60
2022/06/15 13:33:02;;;;;;;3.08;1.40;;;21.70;52.90;;;;;;5056357;28;20048;-62
2022/06/15 13:35:43;;;;;;;2.25;1.30;;;21.80;53.70;;;;;;5053760;28;20036;-60